createdAt,value
2022-12-29T00:00:21.184Z,16.83
2022-12-29T00:02:55.813Z,16.08
2022-12-29T00:05:22.732Z,15.90
2022-12-29T00:07:49.583Z,14.80
2022-12-29T00:10:16.474Z,15.43
2022-12-29T00:13:02.122Z,16.25
2022-12-29T00:15:38.211Z,16.70
2022-12-29T00:18:05.530Z,16.15
2022-12-29T00:20:55.964Z,16.85
2022-12-29T00:23:41.587Z,15.32
2022-12-29T00:26:34.692Z,16.55
2022-12-29T00:29:20.128Z,16.05
2022-12-29T00:32:05.617Z,16.88
2022-12-29T00:34:51.190Z,17.13
2022-12-29T00:37:38.508Z,17.42
2022-12-29T00:40:24.395Z,16.42
2022-12-29T00:43:09.801Z,15.82
2022-12-29T00:45:36.713Z,16.33
2022-12-29T00:48:03.641Z,17.33
2022-12-29T00:50:30.488Z,15.88
2022-12-29T00:52:57.431Z,16.40
2022-12-29T00:55:24.272Z,15.23
2022-12-29T00:57:51.119Z,16.55
2022-12-29T01:00:17.966Z,15.30
2022-12-29T01:02:45.121Z,16.35
2022-12-29T01:05:12.030Z,16.08
2022-12-29T01:07:38.897Z,16.27
2022-12-29T01:10:11.868Z,17.42
2022-12-29T01:12:42.116Z,16.13
2022-12-29T01:15:11.245Z,16.25
2022-12-29T01:17:38.172Z,16.23
2022-12-29T01:20:05.878Z,16.50
2022-12-29T01:22:32.757Z,16.27
2022-12-29T01:24:59.688Z,16.83
2022-12-29T01:27:26.914Z,16.67
2022-12-29T01:29:53.814Z,16.90
2022-12-29T01:32:20.779Z,15.68
2022-12-29T01:34:47.634Z,17.52
2022-12-29T01:37:14.500Z,17.42
2022-12-29T01:39:41.475Z,18.67
2022-12-29T01:42:18.196Z,17.83
2022-12-29T01:44:57.425Z,17.45
2022-12-29T01:47:33.784Z,18.85
2022-12-29T01:50:07.854Z,17.50
2022-12-29T01:52:38.392Z,17.63
2022-12-29T01:55:06.649Z,16.98
2022-12-29T01:57:38.275Z,17.98
2022-12-29T02:02:37.466Z,17.17
2022-12-29T02:05:20.814Z,16.90
2022-12-29T02:07:49.650Z,16.55
2022-12-29T02:10:16.866Z,18.67
2022-12-29T02:12:44.231Z,17.67
2022-12-29T02:15:14.467Z,17.48
2022-12-29T02:18:05.958Z,17.70
2022-12-29T02:21:07.871Z,17.42
2022-12-29T02:23:54.811Z,17.88
2022-12-29T02:26:51.324Z,17.13
2022-12-29T02:29:30.342Z,18.30
2022-12-29T02:32:18.190Z,17.90
2022-12-29T02:34:59.309Z,18.27
2022-12-29T02:37:29.399Z,17.67
2022-12-29T02:39:56.279Z,18.38
2022-12-29T02:42:40.704Z,18.90
2022-12-29T02:45:28.831Z,17.88
2022-12-29T02:47:58.866Z,17.35
2022-12-29T02:50:42.151Z,19.50
2022-12-29T02:53:17.415Z,18.02
2022-12-29T02:55:51.189Z,18.00
2022-12-29T02:58:23.830Z,17.55
2022-12-29T03:01:08.836Z,17.40
2022-12-29T03:04:06.760Z,17.98
2022-12-29T03:06:40.730Z,18.17
2022-12-29T03:09:42.435Z,18.08
2022-12-29T03:12:51.204Z,16.75
2022-12-29T03:15:57.100Z,14.90
2022-12-29T03:18:35.472Z,16.08
2022-12-29T03:21:53.931Z,16.65
2022-12-29T03:24:24.295Z,16.48
2022-12-29T03:26:53.960Z,16.15
2022-12-29T03:29:22.236Z,17.20
2022-12-29T03:31:51.953Z,15.98
2022-12-29T03:34:21.700Z,15.20
2022-12-29T03:37:13.957Z,15.13
2022-12-29T03:39:41.935Z,14.90
2022-12-29T03:42:16.218Z,16.05
2022-12-29T03:44:46.387Z,14.90
2022-12-29T03:47:15.334Z,16.25
2022-12-29T03:49:42.416Z,16.08
2022-12-29T03:52:09.391Z,16.70
2022-12-29T03:54:36.257Z,16.35
2022-12-29T03:57:03.136Z,16.70
2022-12-29T03:59:29.984Z,16.08
2022-12-29T04:01:56.905Z,15.82
2022-12-29T04:04:24.008Z,14.88
2022-12-29T04:06:50.998Z,14.55
2022-12-29T04:09:17.923Z,15.88
2022-12-29T04:11:44.773Z,14.43
2022-12-29T04:14:11.783Z,14.05
2022-12-29T04:16:39.943Z,14.80
2022-12-29T04:19:08.513Z,14.15
2022-12-29T04:21:35.491Z,14.23
2022-12-29T04:24:02.428Z,14.20
2022-12-29T04:26:29.228Z,14.05
2022-12-29T04:28:56.174Z,13.85
2022-12-29T04:31:23.158Z,13.52
2022-12-29T04:33:50.132Z,13.82
2022-12-29T04:36:16.980Z,12.88
2022-12-29T04:38:45.621Z,12.25
2022-12-29T04:41:12.530Z,12.45
2022-12-29T04:43:39.324Z,13.35
2022-12-29T04:46:06.889Z,13.30
2022-12-29T04:48:34.338Z,13.15
2022-12-29T04:51:01.724Z,12.70
2022-12-29T04:53:28.594Z,11.60
2022-12-29T04:55:55.493Z,12.75
2022-12-29T04:58:23.265Z,13.98
2022-12-29T05:00:52.065Z,13.40
2022-12-29T05:03:19.371Z,13.55
2022-12-29T05:05:46.354Z,13.05
2022-12-29T05:08:13.200Z,12.70
2022-12-29T05:10:40.744Z,13.52
2022-12-29T05:13:07.657Z,13.25
2022-12-29T05:15:34.542Z,13.35
2022-12-29T05:18:01.457Z,13.18
2022-12-29T05:20:28.291Z,12.43
2022-12-29T05:22:55.249Z,11.05
2022-12-29T05:25:22.108Z,11.50
2022-12-29T05:27:48.928Z,12.35
2022-12-29T05:30:15.825Z,12.27
2022-12-29T05:32:42.656Z,12.02
2022-12-29T05:35:09.906Z,12.45
2022-12-29T05:37:36.782Z,11.55
2022-12-29T05:40:04.300Z,12.27
2022-12-29T05:42:31.137Z,12.15
2022-12-29T05:44:58.072Z,11.65
2022-12-29T05:47:24.972Z,11.38
2022-12-29T05:49:52.740Z,12.48
2022-12-29T05:52:19.638Z,12.70
2022-12-29T05:54:46.515Z,11.50
2022-12-29T05:57:13.353Z,11.63
2022-12-29T05:59:40.159Z,12.02
2022-12-29T06:02:07.164Z,12.45
2022-12-29T06:04:34.142Z,13.13
2022-12-29T06:07:00.991Z,12.68
2022-12-29T06:09:27.796Z,13.50
2022-12-29T06:11:54.925Z,14.32
2022-12-29T06:14:21.946Z,13.07
2022-12-29T06:16:48.838Z,14.43
2022-12-29T06:19:15.833Z,13.90
2022-12-29T06:21:42.680Z,13.52
2022-12-29T06:24:11.048Z,15.65
2022-12-29T06:26:38.018Z,14.20
2022-12-29T06:29:04.980Z,15.05
2022-12-29T06:31:31.904Z,14.88
2022-12-29T06:34:00.417Z,14.57
2022-12-29T06:38:57.205Z,13.90
2022-12-29T06:41:29.959Z,14.00
2022-12-29T06:43:59.047Z,14.13
2022-12-29T06:46:26.011Z,13.82
2022-12-29T06:48:52.938Z,15.80
2022-12-29T06:51:19.801Z,14.88
2022-12-29T06:53:46.588Z,15.73
2022-12-29T06:56:13.460Z,14.80
2022-12-29T06:58:40.336Z,15.32
2022-12-29T07:01:07.457Z,13.90
2022-12-29T07:03:34.491Z,17.00
2022-12-29T07:06:01.531Z,14.70
2022-12-29T07:08:28.451Z,16.35
2022-12-29T07:10:55.327Z,15.20
2022-12-29T07:13:22.148Z,15.55
2022-12-29T07:15:49.041Z,14.95
2022-12-29T07:18:15.933Z,15.43
2022-12-29T07:20:44.272Z,14.95
2022-12-29T07:23:11.214Z,15.55
2022-12-29T07:25:38.098Z,15.00
2022-12-29T07:28:05.409Z,16.13
2022-12-29T07:30:32.381Z,16.05
2022-12-29T07:32:59.324Z,16.20
2022-12-29T07:35:26.225Z,16.15
2022-12-29T07:37:53.128Z,16.63
2022-12-29T07:40:19.987Z,16.13
2022-12-29T07:42:46.843Z,20.30
2022-12-29T07:45:13.656Z,16.80
2022-12-29T07:47:40.500Z,16.48
2022-12-29T07:50:07.640Z,16.98
2022-12-29T07:52:34.510Z,15.55
2022-12-29T07:55:01.458Z,14.80
2022-12-29T07:57:32.161Z,15.20
2022-12-29T07:59:59.608Z,16.45
2022-12-29T08:02:27.639Z,16.33
2022-12-29T08:04:54.733Z,17.00
2022-12-29T08:07:21.771Z,16.63
2022-12-29T08:09:48.649Z,15.65
2022-12-29T08:12:15.540Z,16.33
2022-12-29T08:14:42.448Z,17.13
2022-12-29T08:17:09.398Z,14.70
2022-12-29T08:19:36.358Z,15.27
2022-12-29T08:22:03.744Z,17.80
2022-12-29T08:24:30.559Z,14.52
2022-12-29T08:26:57.463Z,14.18
2022-12-29T08:29:24.419Z,13.90
2022-12-29T08:31:51.471Z,13.90
2022-12-29T08:34:18.447Z,15.25
2022-12-29T08:36:45.310Z,12.98
2022-12-29T08:39:12.254Z,14.57
2022-12-29T08:41:39.508Z,13.18
2022-12-29T08:44:06.552Z,13.90
2022-12-29T08:46:33.466Z,14.75
2022-12-29T08:49:00.477Z,15.38
2022-12-29T08:51:27.403Z,14.05
2022-12-29T08:53:54.565Z,13.57
2022-12-29T08:56:21.749Z,12.98
2022-12-29T08:58:48.610Z,13.38
2022-12-29T09:01:15.484Z,13.05
2022-12-29T09:06:29.444Z,12.88
2022-12-29T09:08:56.671Z,12.57
2022-12-29T09:11:26.713Z,12.30
2022-12-29T09:13:54.737Z,13.95
2022-12-29T09:16:24.184Z,11.77
2022-12-29T09:18:51.573Z,13.13
2022-12-29T09:21:18.881Z,12.10
2022-12-29T09:23:45.770Z,13.18
2022-12-29T09:26:12.697Z,12.70
2022-12-29T09:28:39.800Z,13.50
2022-12-29T09:31:07.090Z,13.70
2022-12-29T09:33:36.763Z,13.52
2022-12-29T09:36:04.297Z,12.65
2022-12-29T09:38:31.772Z,14.95
2022-12-29T09:41:11.805Z,15.52
2022-12-29T09:44:06.299Z,13.93
2022-12-29T09:46:39.316Z,12.63
2022-12-29T09:49:44.351Z,11.25
2022-12-29T09:52:22.343Z,13.30
2022-12-29T09:55:08.959Z,12.55
2022-12-29T09:57:59.436Z,12.80
2022-12-29T10:01:03.912Z,12.32
2022-12-29T10:03:58.465Z,12.88
2022-12-29T10:07:19.323Z,13.25
2022-12-29T10:10:04.667Z,12.68
2022-12-29T10:12:43.651Z,12.73
2022-12-29T10:15:30.626Z,12.30
2022-12-29T10:18:40.590Z,13.18
2022-12-29T10:21:25.690Z,12.15
2022-12-29T10:23:54.603Z,12.55
2022-12-29T10:26:29.521Z,13.55
2022-12-29T10:29:03.537Z,12.88
2022-12-29T10:32:07.476Z,11.23
2022-12-29T10:34:50.533Z,11.82
2022-12-29T10:37:38.033Z,12.18
2022-12-29T10:40:26.685Z,11.43
2022-12-29T10:42:56.162Z,10.80
2022-12-29T10:45:26.792Z,10.23
2022-12-29T10:48:12.251Z,11.82
2022-12-29T10:50:43.881Z,11.48
2022-12-29T10:55:47.012Z,9.95
2022-12-29T10:58:15.788Z,10.32
2022-12-29T11:00:43.964Z,11.27
2022-12-29T11:03:32.058Z,10.63
2022-12-29T11:06:24.658Z,11.45
2022-12-29T11:09:02.695Z,12.63
2022-12-29T11:11:37.658Z,10.15
2022-12-29T11:14:19.206Z,10.55
2022-12-29T11:17:03.703Z,11.20
2022-12-29T11:19:37.492Z,11.00
2022-12-29T11:22:26.672Z,11.00
2022-12-29T11:24:55.320Z,10.02
2022-12-29T11:27:27.203Z,9.90
2022-12-29T11:29:55.240Z,10.10
2022-12-29T11:32:29.065Z,10.63
2022-12-29T11:34:58.769Z,9.65
2022-12-29T11:37:39.980Z,9.45
2022-12-29T11:40:20.165Z,9.05
2022-12-29T11:42:56.722Z,10.07
2022-12-29T11:45:33.609Z,9.32
2022-12-29T11:48:23.119Z,9.95
2022-12-29T11:50:55.009Z,10.88
2022-12-29T11:53:25.995Z,11.95
2022-12-29T11:56:02.853Z,10.38
2022-12-29T11:58:33.584Z,11.52
2022-12-29T12:01:11.336Z,10.33
2022-12-29T12:04:00.124Z,10.88
2022-12-29T12:06:29.791Z,11.73
2022-12-29T12:09:06.955Z,11.95
2022-12-29T12:11:43.186Z,12.70
2022-12-29T12:14:13.103Z,11.70
2022-12-29T12:16:47.333Z,13.13
2022-12-29T12:19:30.841Z,12.07
2022-12-29T12:22:05.076Z,11.70
2022-12-29T12:25:07.947Z,12.02
2022-12-29T12:27:44.716Z,11.40
2022-12-29T12:30:26.056Z,11.35
2022-12-29T12:33:06.373Z,11.45
2022-12-29T12:36:05.097Z,18.27
2022-12-29T12:38:55.262Z,16.58
2022-12-29T12:42:18.873Z,15.40
2022-12-29T12:45:26.301Z,12.50
2022-12-29T12:48:08.632Z,13.23
2022-12-29T12:51:32.482Z,12.98
2022-12-29T12:54:24.978Z,13.38
2022-12-29T12:57:05.230Z,11.43
2022-12-29T12:59:57.373Z,12.70
2022-12-29T13:02:56.002Z,14.07
2022-12-29T13:05:26.821Z,13.30
2022-12-29T13:08:13.333Z,12.82
2022-12-29T13:10:48.366Z,13.02
2022-12-29T13:13:50.101Z,12.80
2022-12-29T13:16:39.625Z,12.70
2022-12-29T13:19:18.096Z,12.07
2022-12-29T13:22:05.998Z,12.25
2022-12-29T13:25:02.950Z,12.40
2022-12-29T13:28:08.341Z,12.90
2022-12-29T13:30:57.385Z,15.15
2022-12-29T13:34:10.654Z,12.93
2022-12-29T13:36:52.690Z,13.43
2022-12-29T13:39:21.589Z,13.05
2022-12-29T13:41:54.308Z,14.57
2022-12-29T13:44:33.231Z,12.07
2022-12-29T13:49:35.357Z,11.80
2022-12-29T13:52:34.060Z,15.82
2022-12-29T13:55:35.162Z,12.82
2022-12-29T13:58:12.588Z,13.40
2022-12-29T14:00:58.501Z,14.57
2022-12-29T14:03:49.398Z,14.80
2022-12-29T14:06:30.249Z,23.15
2022-12-29T14:09:03.864Z,15.00
2022-12-29T14:11:42.110Z,16.40
2022-12-29T14:14:42.961Z,14.23
2022-12-29T14:17:14.936Z,14.52
2022-12-29T14:19:45.738Z,14.48
2022-12-29T14:22:13.598Z,16.20
2022-12-29T14:24:44.076Z,14.35
2022-12-29T14:27:10.880Z,14.57
2022-12-29T14:29:40.806Z,14.75
2022-12-29T14:32:25.533Z,15.95
2022-12-29T14:34:53.054Z,16.40
2022-12-29T14:37:26.637Z,17.60
2022-12-29T14:40:27.176Z,20.55
2022-12-29T14:42:56.313Z,16.80
2022-12-29T14:45:38.361Z,20.67
2022-12-29T14:48:25.126Z,17.80
2022-12-29T14:50:52.052Z,17.70
2022-12-29T14:53:42.016Z,22.38
2022-12-29T14:56:12.122Z,18.55
2022-12-29T14:58:57.053Z,17.58
2022-12-29T15:01:50.123Z,18.23
2022-12-29T15:04:21.852Z,19.00
2022-12-29T15:09:25.817Z,16.27
2022-12-29T15:11:57.107Z,17.00
2022-12-29T15:14:35.816Z,18.80
2022-12-29T15:17:10.743Z,17.85
2022-12-29T15:19:37.951Z,19.05
2022-12-29T15:22:05.521Z,18.70
2022-12-29T15:24:39.360Z,19.52
2022-12-29T15:27:16.372Z,19.17
2022-12-29T15:29:46.236Z,17.73
2022-12-29T15:32:25.887Z,17.50
2022-12-29T15:35:13.994Z,16.20
2022-12-29T15:37:40.836Z,16.00
2022-12-29T15:40:27.697Z,15.73
2022-12-29T15:43:18.876Z,21.23
2022-12-29T15:45:45.908Z,15.40
2022-12-29T15:48:19.559Z,15.82
2022-12-29T15:50:47.113Z,17.17
2022-12-29T15:53:25.799Z,15.82
2022-12-29T15:55:57.025Z,14.35
2022-12-29T15:58:29.601Z,13.70
2022-12-29T16:01:02.058Z,13.63
2022-12-29T16:03:33.823Z,13.32
2022-12-29T16:06:29.147Z,13.75
2022-12-29T16:09:19.766Z,13.10
2022-12-29T16:11:55.858Z,14.00
2022-12-29T16:14:30.440Z,15.55
2022-12-29T16:17:00.668Z,14.23
2022-12-29T16:19:35.598Z,14.43
2022-12-29T16:22:04.346Z,15.80
2022-12-29T16:24:34.805Z,13.40
2022-12-29T16:27:18.175Z,12.13
2022-12-29T16:29:45.274Z,12.48
2022-12-29T16:32:27.504Z,10.93
2022-12-29T16:35:28.289Z,11.60
2022-12-29T16:38:22.527Z,14.13
2022-12-29T16:40:56.908Z,11.55
2022-12-29T16:43:29.502Z,11.40
2022-12-29T16:45:59.293Z,10.98
2022-12-29T16:48:27.333Z,12.57
2022-12-29T16:51:06.604Z,11.98
2022-12-29T16:53:35.524Z,11.38
2022-12-29T16:56:25.171Z,13.05
2022-12-29T16:58:57.879Z,13.35
2022-12-29T17:01:25.522Z,13.40
2022-12-29T17:04:06.958Z,11.75
2022-12-29T17:06:33.908Z,12.95
2022-12-29T17:09:00.862Z,13.65
2022-12-29T17:11:59.242Z,12.32
2022-12-29T17:14:34.501Z,12.38
2022-12-29T17:17:02.222Z,12.30
2022-12-29T17:19:35.019Z,11.80
2022-12-29T17:22:03.096Z,12.82
2022-12-29T17:24:30.609Z,13.45
2022-12-29T17:27:00.030Z,13.15
2022-12-29T17:29:37.181Z,14.05
2022-12-29T17:32:06.663Z,14.02
2022-12-29T17:34:34.134Z,13.43
2022-12-29T17:37:00.975Z,13.90
2022-12-29T17:39:27.859Z,14.98
2022-12-29T17:41:54.744Z,15.25
2022-12-29T17:44:28.862Z,15.73
2022-12-29T17:46:55.695Z,16.25
2022-12-29T17:49:22.541Z,16.52
2022-12-29T17:51:49.339Z,16.08
2022-12-29T17:54:23.872Z,17.70
2022-12-29T17:56:51.630Z,18.17
2022-12-29T17:59:19.366Z,18.90
2022-12-29T18:01:48.290Z,18.63
2022-12-29T18:04:17.884Z,18.98
2022-12-29T18:06:46.182Z,18.65
2022-12-29T18:09:14.029Z,18.45
2022-12-29T18:11:43.724Z,19.38
2022-12-29T18:14:15.342Z,18.48
2022-12-29T18:16:43.419Z,19.13
2022-12-29T18:19:10.421Z,19.27
2022-12-29T18:21:38.449Z,19.45
2022-12-29T18:24:05.625Z,19.70
2022-12-29T18:26:35.551Z,21.95
2022-12-29T18:29:02.786Z,22.13
2022-12-29T18:31:32.099Z,21.15
2022-12-29T18:34:00.903Z,20.90
2022-12-29T18:36:29.102Z,20.40
2022-12-29T18:38:56.086Z,21.77
2022-12-29T18:41:25.262Z,21.77
2022-12-29T18:43:52.633Z,22.05
2022-12-29T18:46:23.106Z,21.27
2022-12-29T18:48:50.826Z,20.15
2022-12-29T18:51:21.089Z,21.67
2022-12-29T18:53:48.690Z,23.40
2022-12-29T18:56:15.551Z,21.10
2022-12-29T18:58:42.413Z,20.08
2022-12-29T19:01:23.846Z,18.95
2022-12-29T19:03:51.512Z,19.25
2022-12-29T19:06:19.198Z,19.48
2022-12-29T19:08:46.038Z,20.40
2022-12-29T19:11:12.997Z,17.20
2022-12-29T19:13:40.513Z,14.30
2022-12-29T19:16:09.134Z,14.93
2022-12-29T19:18:45.094Z,14.95
2022-12-29T19:21:13.414Z,15.20
2022-12-29T19:23:40.327Z,15.63
2022-12-29T19:26:07.242Z,14.63
2022-12-29T19:28:34.238Z,15.57
2022-12-29T19:31:02.783Z,14.68
2022-12-29T19:33:29.796Z,14.13
2022-12-29T19:36:03.270Z,15.40
2022-12-29T19:38:30.088Z,15.38
2022-12-29T19:40:57.220Z,14.85
2022-12-29T19:43:24.186Z,15.25
2022-12-29T19:45:52.523Z,15.20
2022-12-29T19:48:20.751Z,15.27
2022-12-29T19:50:48.087Z,15.75
2022-12-29T19:53:15.815Z,14.98
2022-12-29T19:55:46.913Z,16.27
2022-12-29T19:58:14.207Z,17.40
2022-12-29T20:00:42.597Z,17.20
2022-12-29T20:03:10.010Z,18.10
2022-12-29T20:05:37.591Z,18.27
2022-12-29T20:08:04.548Z,18.13
2022-12-29T20:10:31.403Z,17.60
2022-12-29T20:12:58.275Z,18.60
2022-12-29T20:15:25.195Z,18.33
2022-12-29T20:20:38.949Z,19.45
2022-12-29T20:23:05.843Z,18.73
2022-12-29T20:25:48.623Z,18.38
2022-12-29T20:28:16.176Z,19.30
2022-12-29T20:30:43.705Z,19.20
2022-12-29T20:33:10.611Z,19.00
2022-12-29T20:35:37.983Z,20.42
2022-12-29T20:38:05.415Z,19.38
2022-12-29T20:40:32.555Z,20.05
2022-12-29T20:42:59.424Z,19.33
2022-12-29T20:45:26.543Z,20.75
2022-12-29T20:47:53.584Z,20.77
2022-12-29T20:50:20.462Z,20.23
2022-12-29T20:52:47.447Z,20.38
2022-12-29T20:55:14.748Z,18.70
2022-12-29T20:58:21.935Z,18.00
2022-12-29T21:00:32.801Z,17.73
2022-12-29T21:03:00.959Z,17.83
2022-12-29T21:05:28.859Z,19.67
2022-12-29T21:07:56.208Z,19.45
2022-12-29T21:10:23.188Z,19.70
2022-12-29T21:12:50.107Z,18.45
2022-12-29T21:15:17.033Z,18.40
2022-12-29T21:17:44.929Z,18.92
2022-12-29T21:20:20.164Z,20.27
2022-12-29T21:22:48.316Z,18.13
2022-12-29T21:25:15.652Z,19.35
2022-12-29T21:27:45.438Z,22.17
2022-12-29T21:30:13.044Z,22.08
2022-12-29T21:32:40.733Z,25.95
2022-12-29T21:35:09.167Z,30.40
2022-12-29T21:37:36.783Z,28.15
2022-12-29T21:40:04.673Z,25.48
2022-12-29T21:42:31.790Z,20.42
2022-12-29T21:45:20.892Z,17.85
2022-12-29T21:48:07.048Z,18.15
2022-12-29T21:50:33.977Z,17.13
2022-12-29T21:53:00.812Z,17.55
2022-12-29T21:55:27.756Z,17.35
2022-12-29T21:58:13.099Z,17.15
2022-12-29T22:00:58.696Z,17.63
2022-12-29T22:03:44.310Z,17.15
2022-12-29T22:06:30.570Z,16.90
2022-12-29T22:09:16.207Z,17.80
2022-12-29T22:12:01.485Z,17.90
2022-12-29T22:14:28.300Z,17.27
2022-12-29T22:16:55.141Z,17.48
2022-12-29T22:19:22.099Z,17.83
2022-12-29T22:21:48.940Z,18.38
2022-12-29T22:24:15.858Z,18.45
2022-12-29T22:26:42.765Z,18.52
2022-12-29T22:29:09.618Z,18.70
2022-12-29T22:31:36.605Z,17.90
2022-12-29T22:34:04.780Z,18.38
2022-12-29T22:36:32.422Z,18.75
2022-12-29T22:38:59.592Z,18.27
2022-12-29T22:41:26.514Z,19.05
2022-12-29T22:43:53.489Z,17.80
2022-12-29T22:46:20.440Z,18.83
2022-12-29T22:48:47.284Z,18.08
2022-12-29T22:51:14.161Z,18.35
2022-12-29T22:53:41.370Z,17.00
2022-12-29T22:56:09.278Z,17.77
2022-12-29T22:58:39.506Z,17.98
2022-12-29T23:01:06.470Z,18.60
2022-12-29T23:03:33.435Z,17.67
2022-12-29T23:06:02.855Z,17.00
2022-12-29T23:08:32.853Z,17.60
2022-12-29T23:11:00.195Z,18.55
2022-12-29T23:13:27.112Z,17.85
2022-12-29T23:15:54.040Z,20.08
2022-12-29T23:18:20.991Z,18.70
2022-12-29T23:20:51.017Z,18.88
2022-12-29T23:23:41.780Z,18.30
2022-12-29T23:26:13.241Z,17.15
2022-12-29T23:28:40.132Z,17.60
2022-12-29T23:31:07.044Z,18.92
2022-12-29T23:33:34.056Z,17.85
2022-12-29T23:36:00.893Z,17.98
2022-12-29T23:38:27.815Z,18.58
2022-12-29T23:40:54.667Z,17.90
2022-12-29T23:43:21.484Z,17.67
2022-12-29T23:45:50.966Z,17.92
2022-12-29T23:48:18.879Z,16.23
2022-12-29T23:50:46.014Z,17.83
2022-12-29T23:53:13.401Z,16.58
2022-12-29T23:55:43.697Z,17.92
2022-12-29T23:58:11.353Z,18.58
